createdAt,value
2023-04-20T00:05:03.987Z,7.2
2023-04-20T00:07:08.414Z,17.1
2023-04-20T00:11:10.861Z,6.9
2023-04-20T00:12:13.076Z,8.4
2023-04-20T00:16:15.543Z,4.7
2023-04-20T00:18:16.706Z,10.7
2023-04-20T00:20:21.169Z,10.6
2023-04-20T00:22:22.403Z,5.6
2023-04-20T00:24:23.634Z,4.5
2023-04-20T00:26:24.812Z,5.4
2023-04-20T00:28:25.987Z,10.9
2023-04-20T00:30:27.379Z,9.3
2023-04-20T00:32:28.498Z,4.7
2023-04-20T00:34:32.862Z,5.8
2023-04-20T00:36:34.054Z,8.6
2023-04-20T00:38:35.266Z,8.1
2023-04-20T00:40:36.447Z,3
2023-04-20T00:42:37.643Z,3.7
2023-04-20T00:44:39.009Z,11.1
2023-04-20T00:46:40.091Z,11.2
2023-04-20T00:52:46.971Z,6.3
2023-04-20T01:00:51.834Z,5.2
2023-04-20T01:13:29.505Z,7.6
2023-04-20T01:17:35.192Z,8.4
2023-04-20T01:19:36.424Z,6.5
2023-04-20T01:21:37.613Z,7.1
2023-04-20T01:23:38.803Z,8.9
2023-04-20T01:27:41.250Z,4.8
2023-04-20T01:29:45.715Z,13.5
2023-04-20T01:31:46.962Z,4.6
2023-04-20T01:33:48.163Z,11.8
2023-04-20T01:35:49.364Z,8.6
2023-04-20T01:37:50.581Z,11.1
2023-04-20T01:39:51.832Z,4.2
2023-04-20T01:45:58.720Z,6.6
2023-04-20T01:47:59.939Z,4.6
2023-04-20T01:50:01.169Z,4.7
2023-04-20T01:52:02.369Z,13.6
2023-04-20T01:54:03.611Z,6.5
2023-04-20T01:56:04.804Z,6.3
2023-04-20T01:58:09.254Z,6.9
2023-04-20T02:00:10.468Z,7.4
2023-04-20T02:02:11.768Z,9
2023-04-20T02:03:14.088Z,4.4
2023-04-20T02:07:16.325Z,6.4
2023-04-20T02:09:17.759Z,4.7
2023-04-20T02:11:22.020Z,10.8
2023-04-20T02:13:23.247Z,6.1
2023-04-20T02:15:24.513Z,11.9
2023-04-20T02:17:25.730Z,7.4
2023-04-20T02:19:26.842Z,6.2
2023-04-20T02:21:28.131Z,10.1
2023-04-20T02:23:29.266Z,6.2
2023-04-20T02:25:33.761Z,17.4
2023-04-20T02:27:34.955Z,8.8
2023-04-20T02:29:36.184Z,4.6
2023-04-20T02:33:38.618Z,7.4
2023-04-20T02:35:39.824Z,14.2
2023-04-20T02:37:41.074Z,8.2
2023-04-20T02:39:45.491Z,5.8
2023-04-20T02:41:46.774Z,9.1
2023-04-20T02:43:47.936Z,8.8
2023-04-20T02:45:49.173Z,7.5
2023-04-20T02:47:50.545Z,6.1
2023-04-20T02:49:51.601Z,6.9
2023-04-20T02:51:52.801Z,5.6
2023-04-20T02:53:57.298Z,10.1
2023-04-20T02:55:58.477Z,7.7
2023-04-20T02:57:59.695Z,5.7
2023-04-20T02:59:01.948Z,5.8
2023-04-20T03:07:10.070Z,10.1
2023-04-20T03:13:13.722Z,6.4
2023-04-20T03:15:14.911Z,4
2023-04-20T03:17:16.153Z,6.9
2023-04-20T03:19:17.503Z,6.5
2023-04-20T03:21:21.830Z,7.4
2023-04-20T03:23:23.052Z,3.8
2023-04-20T03:25:24.237Z,10.3
2023-04-20T03:27:25.465Z,6.1
2023-04-20T03:29:26.672Z,17.5
2023-04-20T03:35:33.576Z,7.6
2023-04-20T03:39:36.006Z,3.6
2023-04-20T03:41:37.220Z,5.8
2023-04-20T03:43:38.439Z,9.9
2023-04-20T03:45:39.659Z,6.4
2023-04-20T03:47:40.899Z,9.5
2023-04-20T03:49:45.335Z,7.4
2023-04-20T03:51:46.570Z,5.9
2023-04-20T03:53:47.776Z,4.3
2023-04-20T03:54:49.995Z,8.9
2023-04-20T03:56:51.233Z,6.4
2023-04-20T04:00:53.652Z,3.6
2023-04-20T04:02:58.311Z,12.6
2023-04-20T04:04:59.454Z,11.6
2023-04-20T04:07:00.577Z,3.6
2023-04-20T04:09:01.794Z,4.2
2023-04-20T04:13:04.304Z,6.7
2023-04-20T04:17:10.042Z,11.3
2023-04-20T04:19:11.168Z,13.3
2023-04-20T04:21:12.398Z,9.5
2023-04-20T04:23:13.615Z,6
2023-04-20T04:25:14.810Z,5.3
2023-04-20T04:33:22.954Z,5.2
2023-04-20T04:35:24.175Z,6.4
2023-04-20T04:41:27.804Z,10.5
2023-04-20T04:43:29.009Z,8
2023-04-20T04:45:33.492Z,5
2023-04-20T04:47:34.720Z,6.8
2023-04-20T04:49:35.908Z,15.2
2023-04-20T04:52:03.670Z,10.1
2023-04-20T04:54:04.855Z,4.8
2023-04-20T04:56:06.064Z,12.6
2023-04-20T04:58:10.532Z,9.8
2023-04-20T05:02:13.050Z,6.6
2023-04-20T05:08:16.632Z,9.7
2023-04-20T05:12:22.442Z,5.3
2023-04-20T05:14:23.529Z,12.8
2023-04-20T05:16:24.819Z,5.1
2023-04-20T05:18:25.950Z,4.2
2023-04-20T05:20:27.176Z,7.2
2023-04-20T05:44:48.333Z,5.1
2023-04-20T05:45:50.612Z,8.2
2023-04-20T05:47:51.854Z,6.5
2023-04-20T05:49:53.015Z,22.7
2023-04-20T05:51:54.219Z,10
2023-04-20T05:53:58.706Z,14.1
2023-04-20T05:55:59.936Z,8.8
2023-04-20T05:58:01.136Z,15.2
2023-04-20T06:00:02.358Z,13
2023-04-20T06:02:03.667Z,9.8
2023-04-20T06:04:05.012Z,11.8
2023-04-20T06:08:10.500Z,12
2023-04-20T06:10:11.686Z,12
2023-04-20T06:14:14.145Z,13.4
2023-04-20T06:18:16.607Z,8.3
2023-04-20T06:20:17.811Z,6.6
2023-04-20T06:24:23.535Z,8.6
2023-04-20T06:26:24.709Z,11.9
2023-04-20T06:28:25.956Z,10.9
2023-04-20T06:30:27.177Z,6.9
2023-04-20T06:32:28.392Z,12.6
2023-04-20T06:34:29.593Z,12.1
2023-04-20T06:36:34.063Z,14.2
2023-04-20T06:38:35.290Z,11.9
2023-04-20T06:41:38.756Z,6.1
2023-04-20T06:43:39.942Z,8.8
2023-04-20T06:45:41.166Z,16.8
2023-04-20T06:47:42.446Z,11.1
2023-04-20T06:49:46.854Z,9.7
2023-04-20T06:51:48.065Z,11.8
2023-04-20T06:53:49.272Z,11.3
2023-04-20T06:55:50.493Z,10.6
2023-04-20T06:59:52.901Z,7.3
2023-04-20T07:01:54.146Z,21.4
2023-04-20T07:03:58.752Z,10.9
2023-04-20T07:05:59.875Z,10
2023-04-20T07:08:01.114Z,27.6
2023-04-20T07:10:02.439Z,5.7
2023-04-20T07:12:03.513Z,5.9
2023-04-20T07:16:05.965Z,6.7
2023-04-20T07:24:14.063Z,11.4
2023-04-20T07:26:15.265Z,11.4
2023-04-20T07:28:16.488Z,12
2023-04-20T07:30:18.760Z,9.5
2023-04-20T07:32:22.394Z,6.8
2023-04-20T07:37:27.375Z,11
2023-04-20T07:43:30.472Z,12.5
2023-04-20T07:45:35.028Z,10.2
2023-04-20T07:47:36.212Z,17.9
2023-04-20T07:49:37.351Z,16.2
2023-04-20T07:53:39.816Z,8.2
2023-04-20T08:28:15.339Z,12.6
2023-04-20T08:30:11.534Z,8.9
2023-04-20T08:32:12.762Z,10.1
2023-04-20T08:44:50.462Z,13.1
2023-04-20T08:54:59.850Z,22.5
2023-04-20T08:59:02.237Z,7.3
2023-04-20T09:03:04.888Z,7
2023-04-20T09:05:06.024Z,10.7
2023-04-20T09:07:07.147Z,8.3
2023-04-20T09:09:11.642Z,10.2
2023-04-20T09:11:12.864Z,9.5
2023-04-20T09:15:15.300Z,8.7
2023-04-20T09:17:16.523Z,10.1
2023-04-20T09:19:17.760Z,10.5
2023-04-20T09:21:19.002Z,8.7
2023-04-20T09:23:23.475Z,9.2
2023-04-20T09:25:25.361Z,7.6
2023-04-20T09:27:20.118Z,15.8
2023-04-20T09:30:23.595Z,7.8
2023-04-20T09:32:24.844Z,7.6
2023-04-20T09:34:26.067Z,14.8
2023-04-20T09:38:31.825Z,17.5
2023-04-20T09:44:35.501Z,5.9
2023-04-20T09:52:43.856Z,13.1
2023-04-20T09:54:45.068Z,12.9
2023-04-20T09:56:46.298Z,9.5
2023-04-20T09:58:47.542Z,9.4
2023-04-20T10:00:48.799Z,11.9
2023-04-20T10:06:55.739Z,8.9
2023-04-20T10:08:56.989Z,6.4
2023-04-20T10:19:08.952Z,7.4
2023-04-20T10:24:11.156Z,8.8
2023-04-20T10:28:13.606Z,10.6
2023-04-20T10:30:14.824Z,8
2023-04-20T10:32:19.330Z,6.8
2023-04-20T10:38:23.036Z,5.9
2023-04-20T10:44:28.221Z,7.3
2023-04-20T10:46:32.769Z,7.6
2023-04-20T10:50:35.185Z,7.7
2023-04-20T10:52:36.408Z,6.5
2023-04-20T10:54:37.642Z,5.7
2023-04-20T10:56:38.889Z,5.9
2023-04-20T11:00:44.654Z,4.8
2023-04-20T11:02:45.941Z,5.9
2023-04-20T11:04:47.132Z,10.4
2023-04-20T11:08:49.581Z,8.3
2023-04-20T11:10:50.795Z,9.1
2023-04-20T11:14:56.539Z,6.4
2023-04-20T11:16:57.835Z,8.3
2023-04-20T11:20:01.272Z,5.7
2023-04-20T11:22:02.507Z,13
2023-04-20T11:24:03.765Z,15
2023-04-20T11:26:04.970Z,9.8
2023-04-20T11:28:09.483Z,4.9
2023-04-20T11:30:10.728Z,12.9
2023-04-20T11:32:12.053Z,4
2023-04-20T11:34:13.198Z,8
2023-04-20T11:36:14.439Z,6.3
2023-04-20T11:38:15.641Z,7.4
2023-04-20T11:40:17.117Z,7.7
2023-04-20T11:42:21.382Z,5.5
2023-04-20T11:44:22.637Z,7.4
2023-04-20T11:46:23.888Z,7.3
2023-04-20T11:48:25.074Z,12.6
2023-04-20T11:54:28.790Z,6
2023-04-20T11:58:34.544Z,23.9
2023-04-20T12:02:37.189Z,6.2
2023-04-20T12:10:45.184Z,10.2
2023-04-20T12:12:46.392Z,6.6
2023-04-20T12:14:47.644Z,11.9
2023-04-20T12:17:15.916Z,14.5
2023-04-20T12:19:17.541Z,16.4
2023-04-20T12:21:18.381Z,7.4
2023-04-20T12:23:22.881Z,13.2
2023-04-20T12:25:24.100Z,7.8
2023-04-20T12:27:25.363Z,17.3
2023-04-20T12:29:26.575Z,7.1
2023-04-20T12:31:27.855Z,11.1
2023-04-20T12:41:37.231Z,16
2023-04-20T12:43:38.462Z,11.1
2023-04-20T12:45:39.679Z,8.6
2023-04-20T12:47:40.937Z,6.6
2023-04-20T12:49:42.153Z,16
2023-04-20T12:51:46.636Z,14.5
2023-04-20T12:55:52.969Z,9.3
2023-04-20T12:57:50.365Z,9.1
2023-04-20T13:05:58.582Z,5.9
2023-04-20T13:07:59.837Z,14.6
2023-04-20T13:10:01.043Z,14.1
2023-04-20T13:11:03.287Z,13.1
2023-04-20T13:17:07.023Z,10.3
2023-04-20T13:23:15.450Z,7.9
2023-04-20T13:25:15.234Z,12.5
2023-04-20T13:27:16.472Z,6.7
2023-04-20T13:29:18.002Z,19.5
2023-04-20T13:31:18.947Z,10.6
2023-04-20T13:33:23.465Z,8.1
2023-04-20T13:35:24.678Z,10.1
2023-04-20T13:37:25.932Z,8.3
2023-04-20T13:41:28.396Z,9.2
2023-04-20T13:43:29.605Z,13.3
2023-04-20T13:45:30.932Z,12.2
2023-04-20T13:47:35.415Z,7.7
2023-04-20T13:49:36.626Z,8.2
2023-04-20T13:51:37.862Z,8.3
2023-04-20T13:55:40.357Z,8
2023-04-20T13:57:41.570Z,15.1
2023-04-20T13:59:42.831Z,12.6
2023-04-20T14:01:47.365Z,9
2023-04-20T14:05:51.697Z,9.1
2023-04-20T14:06:52.089Z,9.7
2023-04-20T14:15:00.328Z,7.2
2023-04-20T14:17:01.446Z,9.3
2023-04-20T14:19:02.669Z,9.1
2023-04-20T14:21:03.914Z,7.9
2023-04-20T14:23:06.102Z,8.4
2023-04-20T14:27:07.634Z,19.3
2023-04-20T14:29:12.091Z,8
2023-04-20T14:31:13.346Z,15.2
2023-04-20T14:43:24.072Z,8.4
2023-04-20T14:45:25.311Z,11.9
2023-04-20T14:47:26.555Z,7.3
2023-04-20T14:51:29.014Z,12.2
2023-04-20T14:53:32.031Z,11.3
2023-04-20T14:55:31.445Z,8.7
2023-04-20T14:57:35.817Z,7.8
2023-04-20T14:59:36.985Z,12.2
2023-04-20T15:01:40.026Z,11.7
2023-04-20T15:02:40.763Z,11.4
2023-04-20T15:04:41.955Z,7.2
2023-04-20T15:06:42.931Z,11.2
2023-04-20T15:08:44.186Z,10.8
2023-04-20T15:10:48.690Z,13.3
2023-04-20T15:14:51.074Z,6.9
2023-04-20T15:22:55.860Z,7.7
2023-04-20T15:37:07.828Z,10.5
2023-04-20T15:43:14.791Z,8.4
2023-04-20T15:51:19.707Z,9.5
2023-04-20T15:53:24.257Z,8.7
2023-04-20T15:55:25.466Z,17.7
2023-04-20T15:57:26.672Z,7.2
2023-04-20T15:59:54.802Z,9.2
2023-04-20T16:01:56.083Z,17.9
2023-04-20T16:03:57.472Z,10.1
2023-04-20T16:06:01.818Z,8.7
2023-04-20T16:08:03.040Z,7.4
2023-04-20T16:14:06.749Z,11.5
2023-04-20T16:16:08.027Z,8.9
2023-04-20T16:18:09.244Z,9.9
2023-04-20T16:22:14.927Z,7
2023-04-20T16:28:18.656Z,6.4
2023-04-20T16:30:19.879Z,7
2023-04-20T16:32:22.666Z,28
2023-04-20T16:34:27.142Z,8.3
2023-04-20T16:36:28.371Z,12.6
2023-04-20T16:38:29.589Z,10
2023-04-20T16:40:30.837Z,7.4
2023-04-20T16:42:32.073Z,15.6
2023-04-20T16:44:33.362Z,9.3
2023-04-20T16:46:34.603Z,13.3
2023-04-20T16:50:42.130Z,8.6
2023-04-20T16:52:41.570Z,8.3
2023-04-20T16:53:43.834Z,8.3
2023-04-20T16:55:45.072Z,9.4
2023-04-20T16:57:46.296Z,9.4
2023-04-20T16:59:47.538Z,12.6
2023-04-20T17:01:52.086Z,9.2
2023-04-20T17:03:53.445Z,11
2023-04-20T17:05:54.543Z,8.3
2023-04-20T17:09:56.995Z,11.1
2023-04-20T17:16:04.145Z,14.2
2023-04-20T17:20:06.557Z,8.7
2023-04-20T17:22:07.824Z,8.4
2023-04-20T17:30:16.057Z,7.7
2023-04-20T17:32:17.469Z,10.9
2023-04-20T17:34:18.761Z,7.7
2023-04-20T17:36:19.749Z,6.7
2023-04-20T17:38:21.015Z,9.9
2023-04-20T17:48:30.462Z,7.9
2023-04-20T17:49:32.720Z,9.1
2023-04-20T17:59:42.155Z,8.6
2023-04-20T18:03:44.879Z,10.9
2023-04-20T18:05:45.869Z,7.4
2023-04-20T18:07:47.108Z,8.3
2023-04-20T18:09:48.373Z,12.5
2023-04-20T18:11:52.835Z,11.9
2023-04-20T18:21:59.030Z,9.1
2023-04-20T18:28:06.009Z,11.6
2023-04-20T18:30:07.252Z,10
2023-04-20T18:38:12.233Z,11.8
2023-04-20T18:40:16.742Z,15.6
2023-04-20T18:42:17.965Z,14.9
2023-04-20T18:44:19.654Z,9.8
2023-04-20T19:03:35.959Z,13.2
2023-04-20T19:09:42.811Z,19.4
2023-04-20T19:15:46.512Z,13.4
2023-04-20T19:17:47.884Z,17.5
2023-04-20T19:19:49.013Z,17.2
2023-04-20T19:21:53.577Z,14.1
2023-04-20T19:25:55.955Z,18.9
2023-04-20T19:27:57.148Z,18
2023-04-20T19:29:58.414Z,17.5
2023-04-20T19:38:06.582Z,22.4
2023-04-20T19:40:07.805Z,18.1
2023-04-20T19:50:44.301Z,22.3
2023-04-20T20:00:50.458Z,23.1
2023-04-20T20:02:55.093Z,17
2023-04-20T20:04:56.190Z,15.4
2023-04-20T20:08:58.656Z,20.6
2023-04-20T20:10:59.906Z,19.7
2023-04-20T20:15:02.339Z,29.4
2023-04-20T20:19:08.084Z,18.2
2023-04-20T20:21:09.302Z,25.5
2023-04-20T20:23:10.522Z,32.8
2023-04-20T20:25:11.770Z,19
2023-04-20T20:27:13.021Z,24
2023-04-20T20:29:14.274Z,20.8
2023-04-20T20:31:18.801Z,16.1
2023-04-20T20:33:19.943Z,17.5
2023-04-20T20:35:21.165Z,18
2023-04-20T20:44:31.588Z,22
2023-04-20T20:46:32.838Z,18.8
2023-04-20T20:50:35.267Z,26.9
2023-04-20T20:52:36.501Z,17.7
2023-04-20T20:54:37.740Z,23
2023-04-20T20:56:38.945Z,19.2
2023-04-20T20:58:43.471Z,21.4
2023-04-20T21:02:46.064Z,21.2
2023-04-20T21:04:47.136Z,20.5
2023-04-20T21:08:49.582Z,23.1
2023-04-20T21:10:50.809Z,24.8
2023-04-20T21:12:55.294Z,24.5
2023-04-20T21:14:56.545Z,17.3
2023-04-20T21:16:57.864Z,23.3
2023-04-20T21:18:59.014Z,21.2
2023-04-20T21:21:00.247Z,20.4
2023-04-20T21:23:01.506Z,27.7
2023-04-20T21:25:02.732Z,17.9
2023-04-20T21:27:07.193Z,23.5
2023-04-20T21:29:08.426Z,26
2023-04-20T21:32:11.950Z,17.1
2023-04-20T21:34:13.114Z,20.4
2023-04-20T21:38:15.596Z,23.4
2023-04-20T21:40:20.054Z,17.4
2023-04-20T21:42:21.263Z,30.9
2023-04-20T21:44:22.514Z,25.5
2023-04-20T21:46:23.757Z,18.4
2023-04-20T21:48:24.927Z,19.8
2023-04-20T21:50:26.149Z,21.9
2023-04-20T21:52:27.359Z,23.6
2023-04-20T21:54:34.090Z,27.7
2023-04-20T21:56:33.141Z,20.8
2023-04-20T22:00:35.587Z,23.8
2023-04-20T22:02:36.930Z,22.2
2023-04-20T22:04:38.114Z,30.8
2023-04-20T22:06:39.290Z,24.5
2023-04-20T22:08:43.759Z,22.3
2023-04-20T22:14:47.438Z,22
2023-04-20T22:20:51.098Z,17.2
2023-04-20T22:24:58.320Z,22.6
2023-04-20T22:26:59.531Z,28.2
2023-04-20T22:28:01.802Z,30.5
2023-04-20T22:36:09.965Z,28.1
2023-04-20T22:38:11.165Z,22
2023-04-20T22:40:12.432Z,22.8
2023-04-20T22:42:13.608Z,24.8
2023-04-20T22:44:14.881Z,30.3
2023-04-20T22:46:16.112Z,22.9
2023-04-20T22:48:17.382Z,26.8
2023-04-20T22:50:21.837Z,23.2
2023-04-20T22:52:23.032Z,19.8
2023-04-20T22:54:24.279Z,25
2023-04-20T22:56:25.530Z,25.8
2023-04-20T22:58:26.727Z,25.2
2023-04-20T23:00:27.953Z,26.3
2023-04-20T23:04:33.653Z,31.4
2023-04-20T23:06:34.882Z,28.4
2023-04-20T23:08:36.107Z,35.3
2023-04-20T23:10:37.345Z,27.8
2023-04-20T23:18:45.474Z,27.6
2023-04-20T23:20:46.672Z,29.9
2023-04-20T23:22:47.904Z,38.9
2023-04-20T23:25:16.255Z,29.5
2023-04-20T23:27:17.484Z,33.3
2023-04-20T23:33:24.366Z,37.7
2023-04-20T23:35:25.588Z,33.5
2023-04-20T23:37:26.870Z,48.2
2023-04-20T23:43:30.486Z,45
